createdAt,value
2018-07-28T00:00:33.420Z,6.47
2018-07-28T00:03:01.575Z,6.53
2018-07-28T00:05:29.808Z,6.30
2018-07-28T00:07:58.271Z,6.40
2018-07-28T00:10:26.441Z,6.00
2018-07-28T00:12:54.793Z,6.00
2018-07-28T00:15:22.916Z,7.03
2018-07-28T00:19:40.281Z,6.50
2018-07-28T00:22:08.408Z,10.80
2018-07-28T00:24:37.406Z,6.50
2018-07-28T00:27:05.631Z,7.43
2018-07-28T00:29:34.070Z,7.77
2018-07-28T00:32:03.428Z,7.72
2018-07-28T00:34:31.756Z,7.47
2018-07-28T00:36:59.829Z,7.57
2018-07-28T00:39:28.565Z,8.10
2018-07-28T00:41:56.717Z,9.47
2018-07-28T00:44:24.832Z,8.90
2018-07-28T00:46:54.946Z,10.27
2018-07-28T00:49:23.443Z,9.80
2018-07-28T00:51:52.538Z,10.70
2018-07-28T00:54:20.641Z,10.80
2018-07-28T00:56:48.725Z,11.53
2018-07-28T00:59:16.837Z,10.70
2018-07-28T01:01:44.966Z,9.10
2018-07-28T01:04:15.761Z,7.67
2018-07-28T01:06:43.850Z,7.90
2018-07-28T01:09:11.954Z,9.55
2018-07-28T01:11:40.096Z,9.90
2018-07-28T01:14:08.305Z,7.97
2018-07-28T01:16:36.575Z,8.20
2018-07-28T01:19:04.811Z,6.65
2018-07-28T01:21:32.915Z,6.80
2018-07-28T01:24:02.577Z,7.40
2018-07-28T01:26:30.723Z,7.20
2018-07-28T01:29:04.249Z,6.53
2018-07-28T01:31:32.507Z,6.37
2018-07-28T01:34:01.473Z,6.10
2018-07-28T01:36:31.166Z,5.93
2018-07-28T01:38:59.362Z,6.33
2018-07-28T01:41:28.146Z,9.03
2018-07-28T01:43:56.293Z,6.77
2018-07-28T01:46:24.334Z,6.23
2018-07-28T01:48:52.386Z,7.37
2018-07-28T02:08:38.552Z,7.12
2018-07-28T02:28:24.997Z,10.33
2018-07-28T02:30:53.642Z,9.60
2018-07-28T02:33:21.969Z,9.20
2018-07-28T02:35:50.096Z,7.47
2018-07-28T02:55:34.979Z,7.20
2018-07-28T02:58:03.626Z,7.20
2018-07-28T03:00:31.707Z,7.10
2018-07-28T03:02:59.789Z,6.70
2018-07-28T03:22:45.203Z,7.50
2018-07-28T03:25:14.551Z,8.13
2018-07-28T03:45:00.945Z,7.73
2018-07-28T03:47:29.028Z,9.37
2018-07-28T03:49:57.202Z,15.93
2018-07-28T03:52:25.637Z,25.17
2018-07-28T03:54:54.330Z,11.33
2018-07-28T03:57:22.432Z,10.33
2018-07-28T03:59:50.834Z,9.50
2018-07-28T04:02:19.054Z,9.33
2018-07-28T04:22:07.775Z,6.83
2018-07-28T04:24:36.146Z,7.07
2018-07-28T04:27:04.882Z,7.00
2018-07-28T04:29:35.262Z,6.40
2018-07-28T04:32:03.290Z,6.60
2018-07-28T04:34:31.394Z,7.27
2018-07-28T04:36:59.529Z,8.27
2018-07-28T04:39:27.562Z,8.20
2018-07-28T04:41:55.698Z,8.43
2018-07-28T04:44:23.823Z,8.40
2018-07-28T04:46:52.100Z,7.63
2018-07-28T04:49:20.185Z,9.10
2018-07-28T04:51:48.370Z,7.53
2018-07-28T04:54:16.479Z,7.53
2018-07-28T04:56:44.550Z,7.70
2018-07-28T04:59:12.681Z,7.95
2018-07-28T05:01:40.815Z,7.50
2018-07-28T05:04:08.897Z,7.67
2018-07-28T05:06:36.993Z,7.87
2018-07-28T05:09:07.781Z,7.67
2018-07-28T05:11:37.172Z,7.10
2018-07-28T05:14:06.586Z,7.44
2018-07-28T05:16:34.663Z,7.05
2018-07-28T05:19:02.766Z,7.27
2018-07-28T05:21:32.035Z,8.03
2018-07-28T05:24:00.432Z,7.50
2018-07-28T05:26:30.253Z,7.80
2018-07-28T05:29:01.459Z,6.80
2018-07-28T05:31:30.545Z,7.87
2018-07-28T05:33:59.610Z,7.20
2018-07-28T05:36:27.933Z,8.20
2018-07-28T05:38:56.106Z,7.77
2018-07-28T05:41:24.219Z,6.97
2018-07-28T05:43:52.390Z,8.20
2018-07-28T05:46:20.505Z,7.93
2018-07-28T05:48:51.318Z,7.47
2018-07-28T05:51:19.381Z,7.50
2018-07-28T05:53:47.546Z,7.03
2018-07-28T05:56:15.691Z,9.00
2018-07-28T05:58:43.830Z,7.73
2018-07-28T06:01:11.926Z,7.30
2018-07-28T06:03:40.057Z,7.50
2018-07-28T06:06:08.205Z,8.38
2018-07-28T06:08:36.421Z,6.45
2018-07-28T06:11:05.137Z,6.78
2018-07-28T06:13:33.268Z,7.10
2018-07-28T06:16:01.463Z,7.27
2018-07-28T06:18:29.649Z,8.33
2018-07-28T06:20:57.810Z,9.33
2018-07-28T06:23:26.757Z,7.23
2018-07-28T06:25:56.068Z,7.60
2018-07-28T06:45:40.858Z,8.43
2018-07-28T06:48:10.146Z,7.30
2018-07-28T07:07:55.673Z,10.37
2018-07-28T07:10:37.519Z,9.80
2018-07-28T07:13:05.622Z,9.68
2018-07-28T07:15:34.638Z,9.60
2018-07-28T07:35:18.821Z,10.30
2018-07-28T07:37:47.133Z,9.70
2018-07-28T07:40:15.269Z,11.03
2018-07-28T07:42:43.503Z,10.10
2018-07-28T07:45:11.601Z,10.30
2018-07-28T07:47:39.769Z,8.90
2018-07-28T07:50:07.971Z,9.43
2018-07-28T08:09:52.664Z,7.37
2018-07-28T08:12:20.742Z,8.20
2018-07-28T08:14:48.842Z,7.50
2018-07-28T08:17:16.978Z,7.73
2018-07-28T08:19:45.042Z,9.27
2018-07-28T08:22:13.146Z,7.30
2018-07-28T08:24:41.940Z,6.87
2018-07-28T08:44:27.377Z,8.50
2018-07-28T08:46:55.732Z,7.10
2018-07-28T08:49:23.878Z,7.57
2018-07-28T08:51:51.927Z,6.50
2018-07-28T08:54:20.308Z,6.23
2018-07-28T08:56:48.395Z,8.97
2018-07-28T09:16:33.529Z,7.53
2018-07-28T09:19:01.651Z,7.03
2018-07-28T09:21:30.598Z,6.50
2018-07-28T09:23:59.560Z,6.83
2018-07-28T09:26:28.545Z,6.97
2018-07-28T09:46:12.753Z,6.33
2018-07-28T09:48:40.821Z,6.17
2018-07-28T09:51:09.014Z,6.85
2018-07-28T09:53:37.164Z,6.17
2018-07-28T09:56:05.563Z,6.00
2018-07-28T09:58:34.286Z,6.67
2018-07-28T10:18:21.672Z,8.13
2018-07-28T10:20:49.969Z,6.80
2018-07-28T10:40:35.443Z,6.40
2018-07-28T11:00:19.471Z,6.70
2018-07-28T11:20:06.990Z,5.80
2018-07-28T11:22:35.334Z,5.10
2018-07-28T11:42:31.026Z,5.93
2018-07-28T11:45:07.954Z,4.70
2018-07-28T11:47:36.467Z,4.50
2018-07-28T11:50:04.610Z,3.97
2018-07-28T11:52:32.851Z,4.67
2018-07-28T11:55:01.348Z,5.20
2018-07-28T11:57:29.458Z,4.40
2018-07-28T11:59:58.078Z,5.43
2018-07-28T12:02:26.198Z,4.73
2018-07-28T12:04:54.437Z,5.87
2018-07-28T12:07:22.530Z,4.63
2018-07-28T12:09:50.698Z,3.70
2018-07-28T12:49:45.658Z,3.90
2018-07-28T12:52:13.772Z,5.00
2018-07-28T12:54:43.214Z,5.58
2018-07-28T12:57:13.696Z,3.83
2018-07-28T12:59:42.359Z,4.55
2018-07-28T13:02:10.641Z,8.27
2018-07-28T13:04:38.754Z,3.93
2018-07-28T13:07:07.416Z,4.42
2018-07-28T13:09:35.846Z,3.92
2018-07-28T13:12:04.886Z,3.75
2018-07-28T13:14:33.285Z,3.83
2018-07-28T13:17:02.049Z,4.00
2018-07-28T13:19:30.275Z,3.60
2018-07-28T13:21:58.684Z,7.03
2018-07-28T13:24:27.202Z,3.75
2018-07-28T13:26:55.545Z,4.03
2018-07-28T13:29:23.832Z,4.05
2018-07-28T13:31:51.961Z,3.53
2018-07-28T13:51:37.226Z,4.25
2018-07-28T13:54:05.705Z,4.03
2018-07-28T13:56:34.074Z,4.78
2018-07-28T13:59:02.856Z,6.08
2018-07-28T14:01:33.578Z,4.00
2018-07-28T14:04:01.955Z,5.53
2018-07-28T14:06:30.721Z,4.78
2018-07-28T14:08:59.080Z,4.40
2018-07-28T14:28:44.156Z,5.78
2018-07-28T14:31:12.326Z,5.20
2018-07-28T14:33:40.759Z,5.60
2018-07-28T14:36:09.054Z,7.00
2018-07-28T14:38:37.198Z,6.73
2018-07-28T14:58:23.150Z,6.63
2018-07-28T15:00:51.338Z,15.20
2018-07-28T15:03:19.435Z,11.55
2018-07-28T15:23:05.297Z,8.37
2018-07-28T15:25:33.794Z,8.50
2018-07-28T15:28:02.110Z,9.30
2018-07-28T15:47:47.308Z,8.17
2018-07-28T15:50:15.391Z,6.50
2018-07-28T15:52:43.545Z,6.65
2018-07-28T15:55:11.686Z,6.77
2018-07-28T15:57:39.863Z,5.42
2018-07-28T16:00:08.076Z,6.87
2018-07-28T16:02:36.823Z,6.40
2018-07-28T16:05:05.837Z,6.87
2018-07-28T16:07:34.376Z,6.50
2018-07-28T16:27:18.357Z,6.90
2018-07-28T16:29:46.457Z,6.30
2018-07-28T16:32:14.680Z,6.17
2018-07-28T16:34:42.846Z,5.97
2018-07-28T16:37:11.953Z,5.12
2018-07-28T16:39:40.752Z,5.30
2018-07-28T16:59:30.193Z,5.30
2018-07-28T17:01:59.004Z,8.33
2018-07-28T17:04:27.438Z,5.10
2018-07-28T17:06:57.345Z,4.80
2018-07-28T17:09:25.560Z,4.70
2018-07-28T17:11:54.079Z,4.80
2018-07-28T17:14:22.225Z,5.03
2018-07-28T17:16:50.357Z,5.23
2018-07-28T17:19:18.450Z,6.63
2018-07-28T17:21:47.822Z,6.08
2018-07-28T17:24:15.909Z,6.12
2018-07-28T17:26:43.998Z,5.03
2018-07-28T17:29:12.422Z,5.30
2018-07-28T17:31:40.518Z,5.60
2018-07-28T17:34:08.946Z,5.18
2018-07-28T17:36:37.045Z,5.90
2018-07-28T17:39:07.316Z,5.20
2018-07-28T17:41:35.617Z,4.97
2018-07-28T17:44:03.845Z,4.10
2018-07-28T17:46:34.004Z,4.46
2018-07-28T17:49:02.902Z,4.40
2018-07-28T17:51:30.984Z,5.27
2018-07-28T17:53:59.158Z,4.40
2018-07-28T17:56:28.529Z,4.53
2018-07-28T17:58:56.623Z,4.77
2018-07-28T18:01:24.859Z,4.97
2018-07-28T18:03:53.284Z,4.50
2018-07-28T18:06:22.821Z,4.50
2018-07-28T18:08:50.902Z,6.80
2018-07-28T18:11:20.383Z,4.60
2018-07-28T18:13:48.602Z,4.70
2018-07-28T18:40:46.203Z,4.57
2018-07-28T18:43:20.532Z,4.57
2018-07-28T18:45:48.768Z,4.60
2018-07-28T18:48:17.022Z,4.40
2018-07-28T18:50:45.143Z,4.30
2018-07-28T19:10:29.854Z,4.37
2018-07-28T19:13:03.356Z,5.50
2018-07-28T19:15:31.496Z,4.23
2018-07-28T19:18:04.969Z,5.60
2018-07-28T19:20:33.264Z,4.03
2018-07-28T19:23:07.097Z,5.37
2018-07-28T19:25:35.464Z,6.70
2018-07-28T19:28:09.415Z,4.03
2018-07-28T19:30:38.962Z,5.57
2018-07-28T19:33:07.164Z,4.43
2018-07-28T19:35:40.457Z,4.27
2018-07-28T19:55:24.002Z,3.60
2018-07-28T19:57:52.281Z,3.47
2018-07-28T20:00:20.403Z,4.20
2018-07-28T20:02:48.491Z,3.50
2018-07-28T20:05:19.152Z,3.20
2018-07-28T20:07:47.216Z,3.97
2018-07-28T20:10:16.423Z,3.80
2018-07-28T20:12:44.506Z,4.80
2018-07-28T20:15:12.582Z,3.10
2018-07-28T20:17:41.437Z,3.33
2018-07-28T20:37:25.024Z,3.30
2018-07-28T20:39:53.559Z,3.87
2018-07-28T20:42:21.658Z,7.10
2018-07-28T20:44:49.804Z,3.40
2018-07-28T20:47:20.224Z,3.37
2018-07-28T21:07:03.275Z,3.43
2018-07-28T21:09:31.499Z,2.97
2018-07-28T21:11:59.570Z,2.63
2018-07-28T21:14:27.893Z,3.20
2018-07-28T21:16:56.001Z,2.70
2018-07-28T21:19:24.357Z,3.50
2018-07-28T21:21:52.645Z,2.97
2018-07-28T21:24:23.044Z,2.80
2018-07-28T21:26:51.180Z,2.30
2018-07-28T21:29:19.484Z,3.00
2018-07-28T21:31:47.726Z,2.40
2018-07-28T21:34:15.889Z,2.50
2018-07-28T21:36:45.574Z,2.53
2018-07-28T21:39:13.758Z,2.40
2018-07-28T21:41:47.066Z,3.37
2018-07-28T21:44:15.423Z,2.70
2018-07-28T21:46:45.179Z,2.80
2018-07-28T21:49:13.274Z,3.40
2018-07-28T21:51:41.662Z,3.23
2018-07-28T21:54:09.810Z,2.70
2018-07-28T21:56:39.617Z,2.93
2018-07-28T21:59:08.422Z,3.20
2018-07-28T22:01:36.633Z,2.37
2018-07-28T22:04:04.723Z,2.80
2018-07-28T22:06:34.961Z,2.40
2018-07-28T22:09:04.322Z,2.67
2018-07-28T22:11:33.579Z,2.70
2018-07-28T22:14:01.651Z,2.70
2018-07-28T22:16:30.113Z,2.40
2018-07-28T22:18:58.279Z,2.40
2018-07-28T22:21:26.709Z,2.43
2018-07-28T22:23:54.839Z,2.20
2018-07-28T22:43:37.903Z,3.13
2018-07-28T22:46:05.997Z,2.90
2018-07-28T22:48:34.201Z,2.60
2018-07-28T22:51:02.361Z,4.70
2018-07-28T22:53:31.033Z,6.20
2018-07-28T22:55:59.119Z,3.00
2018-07-28T22:58:27.214Z,4.43
2018-07-28T23:00:55.285Z,2.87
2018-07-28T23:03:23.437Z,9.83
2018-07-28T23:05:51.623Z,3.40
2018-07-28T23:08:19.880Z,2.97
2018-07-28T23:10:48.211Z,3.00
2018-07-28T23:13:16.445Z,3.27
2018-07-28T23:15:44.807Z,2.60
2018-07-28T23:18:12.977Z,3.57
2018-07-28T23:37:57.341Z,3.67
2018-07-28T23:40:25.571Z,3.00
2018-07-28T23:42:53.693Z,2.70
2018-07-28T23:45:21.775Z,3.07
2018-07-28T23:47:49.894Z,3.07
2018-07-28T23:50:18.007Z,3.57
2018-07-28T23:52:46.407Z,3.10
2018-07-28T23:55:14.717Z,3.20
2018-07-28T23:57:42.942Z,2.90
